Accueil
METAR-TAF:

METAR-TAF

Aéroports :

Aéroport international Fuaʻamotu

Tongatapu, Tonga

latitude: 21-14S, longitude: 175-09W, altitude: 38 m

Observation

Le bulletin a été fait il y a 1 heure et 1 minutes, à 05:00 UTC
Vent 6 kt de est
Température 29°C
Humidité 79%
Pression 1008 hPa
Visibilité 10 km ou plus
Quelques nuages à une hauteur de 1000 ft
Nuages épars à une hauteur de 1700 ft, Cumulus congestus.

METAR: NFTF 270500Z 08006KT 9999 FEW010 SCT017TCU 29/25 Q1008

Heure: 19:01 (06:01 UTC)

Prévision

Le bulletin a été fait il y a 40 minutes, à 05:21 UTC
Prévision valable du 27 à 06 UTC au 28 à 06 UTC
Vent 6 kt de est/nord-est
Visibilité 10 km ou plus
Quelques nuages à une hauteur de 1000 ft
Probabilité 30% :
Temporairement
du 27 à 08 UTC au 27 à 18 UTC
Visibilité: 5000 m
Nuages fragmentés à une hauteur de 1500 ft
averses de pluie

TAF: NFTF 270521Z 2706/2806 07006KT 9999 FEW010 PROB30 TEMPO 2708/2718 5000 SHRA BKN015

Observations et prévisions météorologiques de plus de 4000 aéroports (messages METAR et TAF).

Les stations disponibles sont représentées par des disques jaunes et rouges sur la carte.

Passer la souris dessus pour voir le nom de la station.

Cliquer dessus pour voir les observations et prévisions météorologiques.

Pour changer de carte: cliquez sur les boutons verts avec une croix noire pour zoomer, sur le bouton vert avec un tiret pour effectuer un zoom arrière, ou sur les flèches vertes pour les cartes adjacentes.


METAR-TAF: